Terminal Aerodrome Forecast
Issued by NWS

Home | Current Version | Previous Version | Text Only | Print | Product List | Glossary On
Versions: 1 2 3 4 5 6 7 8 9 10 11 12 13 14 15 16 17 18 19 20 21 22 23 24 25 26 27 28 29 30 31 32 33 34 35 36 37 38 39 40
000
FTUS45 KBOU 221731
TAFAPA
TAF
KAPA 221731Z 2218/2318 12007KT P6SM VCSH SCT070 BKN120
      TEMPO 2218/2220 -SHRA BKN070
     FM222000 12010KT P6SM VCTS SCT050 BKN080CB
      TEMPO 2220/2224 VRB20G35KT 4SM TSRA BKN050CB
     FM230000 20010KT P6SM VCSH SCT035 OVC060
      TEMPO 2300/2304 VRB15G25KT 4SM TSRA BKN035CB
     FM230400 25007KT P6SM SCT050 OVC080 PROB30 2304/2308 -SHRA
      BKN050
     FM230800 22007KT P6SM SCT080 BKN120
     FM231500 25007KT P6SM SCT080 SCT120=

USA.gov is the U.S. government's official web portal to all federal, state and local government web resources and services.